Airfield :
LOGIN :

Register | Disclaimer

   EN    FR    IT 

 










Legend :    VFR   Marginal VFR   IFR   Intensive IFR   Very Intensive IFR
Visi :
Ceiling :
>= 8 km
>= 3000ft
5 to 8 km
1000 to 3000 ft
1500m to 5 km
500 to 1000 ft
800 to 1500m
200 to 500 ft
< 800m
< 200 ft
Symbols :   Thunderstorms  Fog  Heavy snow  Heavy precipitations  Wind > 20 kt
SIGMETs :     Misc.  Thunderstorms  Icing  Turbulence  Mountain Waves  Volcanic Ashes







- Airport Elevation : 79 ft
- IATA code : SPU


LDSP - Split

CURRENT METAR :
  • 210830Z 12005KT CAVOK 25/13 Q1013 NOSIG

EXPIRED METARs :
  • 210800Z 10006KT 060V130 CAVOK 25/12 Q1013 NOSIG
  • 210730Z 10006KT 070V130 CAVOK 24/13 Q1013 NOSIG
  • 210700Z 10005KT 060V130 CAVOK 24/13 Q1013 NOSIG
  • 210630Z 10006KT 070V130 9999 FEW065 24/14 Q1013 NOSIG
  • 210600Z 08005KT 030V110 9999 FEW065 22/13 Q1013 NOSIG

TAF TAF LDSP
Valid from the 21 at 06:00 until the 22 at 06:00 UTC


210525Z 2106/2206 11006KT 9999 FEW050 TX26/2111Z TN20/2203Z
BECMG 2110/2112 23008KT
TEMPO 2111/2113 23011KT
PROB40
TEMPO 2113/2116 34015G25KT TS FEW035CB FEW040TCU SCT045
BECMG 2116/2118 11008KT
PROB30
TEMPO 2203/2206 TS FEW030CB SCT035
No reported NOTAMs for that airfield.



MET'MAP, your aeronautical weather chart ! - Copyright ORBIFLY December 2007 - Disclaimer

ORBIFLY MET'MAP TEAM :

Programming & Development : Alexandra Zaïnal
Concept & Development : Baudouin d'Aumeries
Co-Development & Prog : Marc-Olivier Méhu
Technical & hardware support : Manuel Goepfert

Contact : metmap@orbifly.com




SOURCES & CREDITS :

   NOAA